createdAt,value
2018-06-20T00:00:03.260Z,24.6
2018-06-20T00:01:58.132Z,24.6
2018-06-20T00:03:57.688Z,24.5
2018-06-20T00:05:04.286Z,24.6
2018-06-20T00:06:02.428Z,24.5
2018-06-20T00:07:00.542Z,24.6
2018-06-20T00:07:09.643Z,24.5
2018-06-20T00:08:06.173Z,24.5
2018-06-20T00:09:06.999Z,24.5
2018-06-20T00:10:07.933Z,24.5
2018-06-20T00:11:07.179Z,24.5
2018-06-20T00:12:05.082Z,24.5
2018-06-20T00:17:13.823Z,24.5
2018-06-20T00:19:10.476Z,24.5
2018-06-20T00:21:19.620Z,24.5
2018-06-20T00:23:49.713Z,24.5
2018-06-20T00:25:42.953Z,24.5
2018-06-20T00:26:40.720Z,24.5
2018-06-20T00:28:41.975Z,24.5
2018-06-20T00:30:39.178Z,24.5
2018-06-20T00:30:47.386Z,24.5
2018-06-20T00:31:53.712Z,24.5
2018-06-20T00:32:52.444Z,24.5
2018-06-20T00:33:50.297Z,24.5
2018-06-20T00:34:48.940Z,24.5
2018-06-20T00:35:47.466Z,24.5
2018-06-20T00:36:48.714Z,24.5
2018-06-20T00:38:45.359Z,24.5
2018-06-20T00:39:43.331Z,24.5
2018-06-20T00:40:43.670Z,24.5
2018-06-20T00:41:50.105Z,24.5
2018-06-20T00:42:49.174Z,24.5
2018-06-20T00:44:45.392Z,24.5
2018-06-20T00:45:44.506Z,24.5
2018-06-20T00:46:46.213Z,24.5
2018-06-20T00:47:43.531Z,24.5
2018-06-20T00:48:41.475Z,24.5
2018-06-20T00:48:49.659Z,24.5
2018-06-20T00:49:48.100Z,24.5
2018-06-20T00:50:50.367Z,24.5
2018-06-20T00:51:55.802Z,24.5
2018-06-20T00:52:53.889Z,24.5
2018-06-20T00:53:54.545Z,24.5
2018-06-20T00:54:55.902Z,24.5
2018-06-20T00:56:54.052Z,24.5
2018-06-20T00:57:52.913Z,24.5
2018-06-20T00:58:56.052Z,24.5
2018-06-20T00:59:58.096Z,24.5
2018-06-20T01:00:56.079Z,24.5
2018-06-20T01:02:02.570Z,24.5
2018-06-20T01:02:57.285Z,24.5
2018-06-20T01:03:56.338Z,24.4
2018-06-20T01:04:55.113Z,24.5
2018-06-20T01:05:54.265Z,24.5
2018-06-20T01:06:51.520Z,24.4
2018-06-20T01:09:02.075Z,24.5
2018-06-20T01:10:04.901Z,24.4
2018-06-20T01:11:14.398Z,24.5
2018-06-20T01:12:14.410Z,24.4
2018-06-20T01:13:14.570Z,24.4
2018-06-20T01:14:18.839Z,24.4
2018-06-20T01:15:20.518Z,24.4
2018-06-20T01:16:19.930Z,24.4
2018-06-20T01:17:18.323Z,24.4
2018-06-20T01:18:20.905Z,24.4
2018-06-20T01:19:25.995Z,24.4
2018-06-20T01:19:34.211Z,24.4
2018-06-20T01:20:31.990Z,24.4
2018-06-20T01:21:31.299Z,24.4
2018-06-20T01:22:28.859Z,24.4
2018-06-20T01:23:27.709Z,24.4
2018-06-20T01:24:31.055Z,24.4
2018-06-20T01:25:51.571Z,24.4
2018-06-20T01:26:50.985Z,24.4
2018-06-20T01:29:50.423Z,24.4
2018-06-20T01:30:48.343Z,24.4
2018-06-20T01:32:49.509Z,24.4
2018-06-20T01:33:50.822Z,24.4
2018-06-20T01:34:49.035Z,24.4
2018-06-20T01:35:52.456Z,24.4
2018-06-20T01:36:51.307Z,24.4
2018-06-20T01:37:50.403Z,24.4
2018-06-20T01:39:45.090Z,24.4
2018-06-20T01:39:54.318Z,24.4
2018-06-20T01:40:50.376Z,24.4
2018-06-20T01:42:01.516Z,24.4
2018-06-20T01:42:59.853Z,24.4
2018-06-20T01:43:58.196Z,24.4
2018-06-20T01:44:56.360Z,24.4
2018-06-20T01:47:04.110Z,24.4
2018-06-20T01:48:05.082Z,24.4
2018-06-20T01:49:02.732Z,24.4
2018-06-20T01:50:12.423Z,24.4
2018-06-20T01:52:26.993Z,24.4
2018-06-20T01:53:24.663Z,24.4
2018-06-20T01:57:21.949Z,24.3
2018-06-20T01:59:19.755Z,24.4
2018-06-20T02:00:21.106Z,24.4
2018-06-20T02:01:20.023Z,24.4
2018-06-20T02:02:20.826Z,24.4
2018-06-20T02:03:20.613Z,24.3
2018-06-20T02:04:21.567Z,24.3
2018-06-20T02:06:28.351Z,24.3
2018-06-20T02:09:33.935Z,24.3
2018-06-20T02:09:42.270Z,24.3
2018-06-20T02:10:45.159Z,24.3
2018-06-20T02:11:42.835Z,24.3
2018-06-20T02:13:43.544Z,24.3
2018-06-20T02:14:41.690Z,24.3
2018-06-20T02:15:45.184Z,24.3
2018-06-20T02:20:00.890Z,24.3
2018-06-20T02:20:58.593Z,24.3
2018-06-20T02:21:56.037Z,24.3
2018-06-20T02:22:55.660Z,24.3
2018-06-20T02:24:54.076Z,24.3
2018-06-20T02:25:51.938Z,24.3
2018-06-20T02:27:56.921Z,24.3
2018-06-20T02:30:02.641Z,24.3
2018-06-20T02:33:01.324Z,24.3
2018-06-20T02:34:06.652Z,24.3
2018-06-20T02:35:08.692Z,24.3
2018-06-20T02:36:07.178Z,24.3
2018-06-20T02:37:05.335Z,24.3
2018-06-20T02:37:14.520Z,24.3
2018-06-20T02:38:10.711Z,24.3
2018-06-20T02:39:14.164Z,24.3
2018-06-20T02:41:15.843Z,24.3
2018-06-20T02:42:16.201Z,24.3
2018-06-20T02:43:13.882Z,24.3
2018-06-20T02:44:14.683Z,24.3
2018-06-20T02:45:13.782Z,24.2
2018-06-20T02:46:11.014Z,24.3
2018-06-20T02:47:10.021Z,24.3
2018-06-20T02:48:12.532Z,24.3
2018-06-20T02:49:07.295Z,24.3
2018-06-20T02:50:05.096Z,24.3
2018-06-20T02:51:04.098Z,24.3
2018-06-20T02:52:02.179Z,24.3
2018-06-20T02:53:05.833Z,24.3
2018-06-20T02:56:04.426Z,24.3
2018-06-20T02:58:08.747Z,24.3
2018-06-20T03:00:16.801Z,24.3
2018-06-20T03:01:19.159Z,24.2
2018-06-20T03:02:17.709Z,24.2
2018-06-20T03:03:16.362Z,24.2
2018-06-20T03:04:16.015Z,24.2
2018-06-20T03:04:25.320Z,24.3
2018-06-20T03:05:23.185Z,24.3
2018-06-20T03:06:27.271Z,24.2
2018-06-20T03:07:27.613Z,24.2
2018-06-20T03:08:24.980Z,24.2
2018-06-20T03:09:22.660Z,24.2
2018-06-20T03:10:23.425Z,24.2
2018-06-20T03:11:25.508Z,24.2
2018-06-20T03:12:24.173Z,24.2
2018-06-20T03:13:24.393Z,24.2
2018-06-20T03:14:29.277Z,24.2
2018-06-20T03:15:28.530Z,24.2
2018-06-20T03:17:25.464Z,24.2
2018-06-20T03:18:25.525Z,24.2
2018-06-20T03:19:25.410Z,24.2
2018-06-20T03:20:24.687Z,24.2
2018-06-20T03:20:33.813Z,24.2
2018-06-20T03:21:30.521Z,24.2
2018-06-20T03:22:06.201Z,24.2
2018-06-20T03:23:07.327Z,24.2
2018-06-20T03:24:05.249Z,24.2
2018-06-20T03:26:05.152Z,24.2
2018-06-20T03:27:03.874Z,24.2
2018-06-20T03:28:03.804Z,24.2
2018-06-20T03:29:06.992Z,24.2
2018-06-20T03:30:06.497Z,24.2
2018-06-20T03:34:07.514Z,24.2
2018-06-20T03:35:07.502Z,24.2
2018-06-20T03:36:07.644Z,24.2
2018-06-20T03:36:16.736Z,24.2
2018-06-20T03:37:16.096Z,24.2
2018-06-20T03:38:18.981Z,24.2
2018-06-20T03:39:21.839Z,24.2
2018-06-20T03:41:25.101Z,24.2
2018-06-20T03:42:26.345Z,24.2
2018-06-20T03:44:43.905Z,24.2
2018-06-20T03:46:46.778Z,24.1
2018-06-20T03:48:49.351Z,24.2
2018-06-20T03:49:48.356Z,24.2
2018-06-20T03:50:48.938Z,24.1
2018-06-20T03:51:52.158Z,24.2
2018-06-20T03:52:49.594Z,24.2
2018-06-20T03:54:44.663Z,24.2
2018-06-20T03:54:52.899Z,24.1
2018-06-20T03:55:52.515Z,24.1
2018-06-20T03:56:49.982Z,24.2
2018-06-20T03:57:50.866Z,24.1
2018-06-20T03:58:51.171Z,24.2
2018-06-20T03:59:48.937Z,24.2
2018-06-20T04:02:47.788Z,24.1
2018-06-20T04:03:45.288Z,24.1
2018-06-20T04:04:48.143Z,24.1
2018-06-20T04:05:47.634Z,24.1
2018-06-20T04:06:45.437Z,24.1
2018-06-20T04:07:48.644Z,24.1
2018-06-20T04:08:50.771Z,24.1
2018-06-20T04:09:52.491Z,24.1
2018-06-20T04:12:03.976Z,24.2
2018-06-20T04:12:59.750Z,24.1
2018-06-20T04:13:57.717Z,24.1
2018-06-20T04:15:53.634Z,24.1
2018-06-20T04:16:56.237Z,24.1
2018-06-20T04:18:56.566Z,24.1
2018-06-20T04:19:55.105Z,24.1
2018-06-20T04:21:01.142Z,24.1
2018-06-20T04:22:03.622Z,24.1
2018-06-20T04:23:04.328Z,24.1
2018-06-20T04:24:04.813Z,24.1
2018-06-20T04:25:06.137Z,24.1
2018-06-20T04:26:04.433Z,24.1
2018-06-20T04:28:00.916Z,24.1
2018-06-20T04:29:01.225Z,24.1
2018-06-20T04:30:03.963Z,24.1
2018-06-20T04:31:05.448Z,24.1
2018-06-20T04:32:03.139Z,24.1
2018-06-20T04:34:00.877Z,24.1
2018-06-20T04:35:06.444Z,24.1
2018-06-20T04:36:04.075Z,24.1
2018-06-20T04:37:04.898Z,24.1
2018-06-20T04:38:02.232Z,24.1
2018-06-20T04:38:11.502Z,24.1
2018-06-20T04:39:14.108Z,24.1
2018-06-20T04:40:11.559Z,24.1
2018-06-20T04:41:09.705Z,24.1
2018-06-20T04:42:07.050Z,24.1
2018-06-20T04:43:08.318Z,24.1
2018-06-20T04:44:07.779Z,24.1
2018-06-20T04:45:07.587Z,24.1
2018-06-20T04:46:05.216Z,24.1
2018-06-20T04:49:03.278Z,24.1
2018-06-20T04:50:04.371Z,24.1
2018-06-20T04:51:18.085Z,24.1
2018-06-20T04:52:22.219Z,24.1
2018-06-20T04:53:29.060Z,24.1
2018-06-20T04:55:34.391Z,24.1
2018-06-20T04:56:36.725Z,24.1
2018-06-20T04:58:37.485Z,24.1
2018-06-20T04:59:34.842Z,24.1
2018-06-20T05:00:37.925Z,24.1
2018-06-20T05:01:37.756Z,24.1
2018-06-20T05:03:36.500Z,24.1
2018-06-20T05:05:33.121Z,24.1
2018-06-20T05:07:29.617Z,24.1
2018-06-20T05:09:31.948Z,24.1
2018-06-20T05:12:36.516Z,24.1
2018-06-20T05:14:37.742Z,24.1
2018-06-20T05:15:36.444Z,24.1
2018-06-20T05:16:42.036Z,24.1
2018-06-20T05:17:43.024Z,24
2018-06-20T05:18:40.834Z,24.1
2018-06-20T05:19:38.343Z,24
2018-06-20T05:20:37.643Z,24
2018-06-20T05:21:42.381Z,24.1
2018-06-20T05:22:40.321Z,24
2018-06-20T05:23:39.929Z,24
2018-06-20T05:24:37.501Z,24
2018-06-20T05:25:34.727Z,24.1
2018-06-20T05:26:46.974Z,24
2018-06-20T05:27:41.573Z,24
2018-06-20T05:28:39.910Z,24
2018-06-20T05:29:37.738Z,24
2018-06-20T05:30:35.791Z,24
2018-06-20T05:31:33.328Z,24
2018-06-20T05:31:42.445Z,24
2018-06-20T05:33:46.728Z,24
2018-06-20T05:34:50.772Z,24
2018-06-20T05:35:48.534Z,24
2018-06-20T05:36:50.441Z,24
2018-06-20T05:37:48.702Z,24
2018-06-20T05:38:46.226Z,24
2018-06-20T05:39:51.600Z,24
2018-06-20T05:40:48.890Z,24
2018-06-20T05:41:47.911Z,24
2018-06-20T05:42:48.603Z,24.1
2018-06-20T05:43:47.566Z,24
2018-06-20T05:44:50.916Z,24
2018-06-20T05:45:53.264Z,24
2018-06-20T05:46:55.924Z,24.1
2018-06-20T05:47:54.043Z,24
2018-06-20T05:48:57.137Z,24
2018-06-20T05:49:55.630Z,24
2018-06-20T05:50:58.184Z,24
2018-06-20T05:51:56.891Z,24
2018-06-20T05:53:05.336Z,24
2018-06-20T05:54:00.580Z,24
2018-06-20T05:54:58.518Z,24
2018-06-20T05:55:57.479Z,24
2018-06-20T05:56:57.672Z,24
2018-06-20T05:57:56.024Z,24
2018-06-20T05:59:02.605Z,24
2018-06-20T06:00:02.044Z,24
2018-06-20T06:02:02.226Z,24
2018-06-20T06:04:07.315Z,24
2018-06-20T06:05:14.745Z,24
2018-06-20T06:06:13.127Z,24
2018-06-20T06:07:11.178Z,24
2018-06-20T06:08:08.917Z,24
2018-06-20T06:09:19.528Z,24
2018-06-20T06:10:22.541Z,24
2018-06-20T06:11:26.166Z,24
2018-06-20T06:13:21.747Z,24
2018-06-20T06:14:20.216Z,24
2018-06-20T06:15:18.133Z,24
2018-06-20T06:17:33.572Z,24
2018-06-20T06:18:33.477Z,24
2018-06-20T06:20:38.140Z,24
2018-06-20T06:20:46.336Z,24
2018-06-20T06:22:44.946Z,24.1
2018-06-20T06:24:44.760Z,24
2018-06-20T06:25:43.559Z,24
2018-06-20T06:26:53.932Z,24.1
2018-06-20T06:27:52.384Z,24
2018-06-20T06:28:57.066Z,24
2018-06-20T06:29:54.669Z,24
2018-06-20T06:30:55.009Z,24.1
2018-06-20T06:32:56.666Z,24.1
2018-06-20T06:35:11.204Z,24.1
2018-06-20T06:36:19.251Z,24.1
2018-06-20T06:37:20.113Z,24.1
2018-06-20T06:40:20.795Z,24.1
2018-06-20T06:41:22.607Z,24.1
2018-06-20T06:44:18.529Z,24.1
2018-06-20T06:45:17.000Z,24.1
2018-06-20T06:46:15.705Z,24.1
2018-06-20T06:48:21.523Z,24
2018-06-20T06:49:22.085Z,24.1
2018-06-20T06:52:21.769Z,24.1
2018-06-20T06:54:31.246Z,24.1
2018-06-20T06:54:40.391Z,24.1
2018-06-20T06:55:39.719Z,24.1
2018-06-20T06:56:37.319Z,24.1
2018-06-20T06:57:38.775Z,24.1
2018-06-20T06:58:37.690Z,24.1
2018-06-20T06:59:38.742Z,24
2018-06-20T07:00:36.873Z,24
2018-06-20T07:01:34.402Z,24
2018-06-20T07:02:33.132Z,23.9
2018-06-20T07:03:33.296Z,23.9
2018-06-20T07:04:31.047Z,23.9
2018-06-20T07:05:32.964Z,23.9
2018-06-20T07:06:33.676Z,23.9
2018-06-20T07:07:31.667Z,23.8
2018-06-20T07:08:30.896Z,23.8
2018-06-20T07:09:28.286Z,23.8
2018-06-20T07:10:31.644Z,23.8
2018-06-20T07:11:34.766Z,23.8
2018-06-20T07:12:32.936Z,23.7
2018-06-20T07:13:33.965Z,23.7
2018-06-20T07:14:35.891Z,23.7
2018-06-20T07:14:44.085Z,23.7
2018-06-20T07:15:40.951Z,23.7
2018-06-20T07:17:36.539Z,23.7
2018-06-20T07:18:38.585Z,23.7
2018-06-20T07:19:36.488Z,23.6
2018-06-20T07:20:33.773Z,23.6
2018-06-20T07:21:38.311Z,23.7
2018-06-20T07:22:38.737Z,23.6
2018-06-20T07:23:38.295Z,23.6
2018-06-20T07:24:35.625Z,23.6
2018-06-20T07:25:36.431Z,23.6
2018-06-20T07:26:42.425Z,23.6
2018-06-20T07:28:37.846Z,23.5
2018-06-20T07:28:47.007Z,23.5
2018-06-20T07:29:43.377Z,23.5
2018-06-20T07:31:40.512Z,23.5
2018-06-20T07:32:38.003Z,23.5
2018-06-20T07:33:37.480Z,23.6
2018-06-20T07:35:39.659Z,23.5
2018-06-20T07:36:38.375Z,23.6
2018-06-20T07:37:36.394Z,23.6
2018-06-20T07:38:35.622Z,23.6
2018-06-20T07:39:34.256Z,23.6
2018-06-20T07:41:31.543Z,23.6
2018-06-20T07:42:31.304Z,23.6
2018-06-20T07:43:29.066Z,23.6
2018-06-20T07:44:34.016Z,23.7
2018-06-20T07:45:34.785Z,23.7
2018-06-20T07:46:33.376Z,23.7
2018-06-20T07:47:30.868Z,23.7
2018-06-20T07:48:29.479Z,23.7
2018-06-20T07:49:30.428Z,23.7
2018-06-20T07:50:27.838Z,23.7
2018-06-20T07:51:26.967Z,23.7
2018-06-20T07:52:28.629Z,23.7
2018-06-20T07:53:28.384Z,23.7
2018-06-20T07:54:27.249Z,23.7
2018-06-20T07:55:29.911Z,23.8
2018-06-20T07:55:39.157Z,23.8
2018-06-20T07:56:35.687Z,23.7
2018-06-20T07:57:34.194Z,23.8
2018-06-20T07:58:41.573Z,23.8
2018-06-20T08:00:36.327Z,23.8
2018-06-20T08:01:33.737Z,23.8
2018-06-20T08:02:36.987Z,23.9
2018-06-20T08:03:44.546Z,23.8
2018-06-20T08:04:42.920Z,23.9
2018-06-20T08:06:45.838Z,23.9
2018-06-20T08:08:44.398Z,23.9
2018-06-20T08:09:43.452Z,23.9
2018-06-20T08:10:43.210Z,23.9
2018-06-20T08:11:41.386Z,24
2018-06-20T08:12:39.335Z,23.9
2018-06-20T08:13:48.299Z,24
2018-06-20T08:14:51.775Z,24
2018-06-20T08:15:51.527Z,24
2018-06-20T08:16:50.419Z,24
2018-06-20T08:17:50.235Z,24
2018-06-20T08:18:49.824Z,24
2018-06-20T08:19:49.788Z,24.1
2018-06-20T08:20:48.356Z,24.1
2018-06-20T08:21:48.940Z,24.1
2018-06-20T08:22:47.501Z,24.1
2018-06-20T08:23:50.597Z,24.1
2018-06-20T08:24:47.866Z,24.1
2018-06-20T08:25:51.687Z,24.2
2018-06-20T08:26:52.724Z,24.2
2018-06-20T08:27:58.359Z,24.2
2018-06-20T08:28:56.808Z,24.2
2018-06-20T08:29:54.297Z,24.3
2018-06-20T08:30:53.089Z,24.3
2018-06-20T08:31:50.793Z,24.3
2018-06-20T08:32:50.763Z,24.3
2018-06-20T08:33:52.574Z,24.3
2018-06-20T08:36:06.962Z,24.4
2018-06-20T08:37:01.490Z,24.4
2018-06-20T08:37:59.339Z,24.5
2018-06-20T08:40:08.149Z,24.5
2018-06-20T08:41:02.784Z,24.5
2018-06-20T08:44:07.269Z,24.6
2018-06-20T08:45:10.752Z,24.6
2018-06-20T08:46:08.728Z,24.6
2018-06-20T08:47:07.406Z,24.6
2018-06-20T08:48:12.554Z,24.6
2018-06-20T08:48:20.795Z,24.7
2018-06-20T08:49:22.277Z,24.7
2018-06-20T08:50:20.840Z,24.7
2018-06-20T08:51:18.159Z,24.7
2018-06-20T08:52:17.526Z,24.7
2018-06-20T08:53:17.240Z,24.7
2018-06-20T08:54:54.516Z,24.8
2018-06-20T08:56:08.782Z,24.8
2018-06-20T08:57:24.045Z,24.8
2018-06-20T08:58:39.242Z,24.9
2018-06-20T08:59:54.612Z,24.9
2018-06-20T09:01:10.931Z,24.9
2018-06-20T09:03:39.548Z,25
2018-06-20T09:04:53.423Z,25
2018-06-20T09:06:08.608Z,25
2018-06-20T09:07:24.868Z,25
2018-06-20T09:08:39.283Z,25
2018-06-20T09:09:38.960Z,25.1
2018-06-20T09:10:37.055Z,25.1
2018-06-20T09:11:36.936Z,25.1
2018-06-20T09:12:39.950Z,25.1
2018-06-20T09:13:37.335Z,25.1
2018-06-20T09:14:40.734Z,25.1
2018-06-20T09:15:44.533Z,25.2
2018-06-20T09:16:41.706Z,25.2
2018-06-20T09:17:40.449Z,25.2
2018-06-20T09:18:37.960Z,25.2
2018-06-20T09:19:35.455Z,25.2
2018-06-20T09:20:35.904Z,25.2
2018-06-20T09:21:35.707Z,25.2
2018-06-20T09:22:39.367Z,25.3
2018-06-20T09:23:40.914Z,25.3
2018-06-20T09:24:40.222Z,25.3
2018-06-20T09:25:43.151Z,25.3
2018-06-20T09:26:35.765Z,25.3
2018-06-20T09:27:43.003Z,25.3
2018-06-20T09:28:50.494Z,25.3
2018-06-20T09:29:50.234Z,25.3
2018-06-20T09:30:50.065Z,25.3
2018-06-20T09:31:52.023Z,25.3
2018-06-20T09:32:51.417Z,25.3
2018-06-20T09:33:48.980Z,25.3
2018-06-20T09:34:49.913Z,25.3
2018-06-20T09:35:50.403Z,25.3
2018-06-20T09:36:53.211Z,25.4
2018-06-20T09:37:52.224Z,25.3
2018-06-20T09:38:49.898Z,25.3
2018-06-20T09:39:47.437Z,25.4
2018-06-20T09:39:57.777Z,25.4
2018-06-20T09:41:04.651Z,25.4
2018-06-20T09:42:03.051Z,25.4
2018-06-20T09:43:02.705Z,25.4
2018-06-20T09:44:04.139Z,25.4
2018-06-20T09:45:01.752Z,25.4
2018-06-20T09:46:02.185Z,25.4
2018-06-20T09:47:05.060Z,25.4
2018-06-20T09:48:08.793Z,25.4
2018-06-20T09:50:08.284Z,25.4
2018-06-20T09:51:10.362Z,25.5
2018-06-20T09:52:08.096Z,25.4
2018-06-20T09:53:05.644Z,25.4
2018-06-20T09:56:06.849Z,25.4
2018-06-20T09:58:07.102Z,25.5
2018-06-20T10:00:07.569Z,25.5
2018-06-20T10:01:14.939Z,25.5
2018-06-20T10:02:12.892Z,25.5
2018-06-20T10:03:11.576Z,25.5
2018-06-20T10:04:12.353Z,25.5
2018-06-20T10:04:34.642Z,25.5
2018-06-20T10:05:44.045Z,25.5
2018-06-20T10:06:43.058Z,25.5
2018-06-20T10:07:47.477Z,25.5
2018-06-20T10:08:46.657Z,25.5
2018-06-20T10:09:51.522Z,25.5
2018-06-20T10:10:49.882Z,25.5
2018-06-20T10:11:54.032Z,25.5
2018-06-20T10:12:53.560Z,25.5
2018-06-20T10:13:53.051Z,25.5
2018-06-20T10:15:00.629Z,25.5
2018-06-20T10:16:01.472Z,25.5
2018-06-20T10:17:07.408Z,25.5
2018-06-20T10:18:04.850Z,25.5
2018-06-20T10:19:05.137Z,25.5
2018-06-20T10:20:12.443Z,25.5
2018-06-20T10:21:10.870Z,25.5
2018-06-20T10:22:10.775Z,25.5
2018-06-20T10:23:08.991Z,25.5
2018-06-20T10:24:08.529Z,25.5
2018-06-20T10:25:07.914Z,25.5
2018-06-20T10:26:06.649Z,25.5
2018-06-20T10:27:04.492Z,25.5
2018-06-20T10:28:09.013Z,25.5
2018-06-20T10:29:06.998Z,25.5
2018-06-20T10:30:12.788Z,25.6
2018-06-20T10:31:14.304Z,25.5
2018-06-20T10:32:13.980Z,25.5
2018-06-20T10:33:15.773Z,25.6
2018-06-20T10:34:13.251Z,25.5
2018-06-20T10:35:11.609Z,25.6
2018-06-20T10:36:15.434Z,25.5
2018-06-20T10:37:17.154Z,25.5
2018-06-20T10:37:26.361Z,25.5
2018-06-20T10:38:30.897Z,25.5
2018-06-20T10:39:30.455Z,25.5
2018-06-20T10:40:30.805Z,25.6
2018-06-20T10:41:28.582Z,25.5
2018-06-20T10:42:27.960Z,25.5
2018-06-20T10:43:31.106Z,25.6
2018-06-20T10:45:28.210Z,25.6
2018-06-20T10:46:25.426Z,25.6
2018-06-20T10:47:25.232Z,25.6
2018-06-20T10:48:22.829Z,25.6
2018-06-20T10:49:22.477Z,25.5
2018-06-20T10:50:37.179Z,25.6
2018-06-20T10:51:42.414Z,25.6
2018-06-20T10:52:41.871Z,25.6
2018-06-20T10:52:50.040Z,25.6
2018-06-20T10:53:51.521Z,25.6
2018-06-20T10:54:50.769Z,25.6
2018-06-20T10:55:50.311Z,25.6
2018-06-20T10:56:53.399Z,25.5
2018-06-20T10:57:58.025Z,25.6
2018-06-20T10:59:07.422Z,25.6
2018-06-20T11:00:05.435Z,25.6
2018-06-20T11:01:05.055Z,25.6
2018-06-20T11:02:05.483Z,25.6
2018-06-20T11:03:04.153Z,25.6
2018-06-20T11:04:01.783Z,25.6
2018-06-20T11:05:00.216Z,25.6
2018-06-20T11:06:01.727Z,25.6
2018-06-20T11:07:01.472Z,25.6
2018-06-20T11:07:58.875Z,25.6
2018-06-20T11:08:59.056Z,25.6
2018-06-20T11:09:56.718Z,25.6
2018-06-20T11:10:55.855Z,25.6
2018-06-20T11:11:03.994Z,25.6
2018-06-20T11:12:06.931Z,25.6
2018-06-20T11:13:05.417Z,25.6
2018-06-20T11:14:12.932Z,25.6
2018-06-20T11:15:12.162Z,25.6
2018-06-20T11:16:10.048Z,25.6
2018-06-20T11:17:12.321Z,25.6
2018-06-20T11:18:09.695Z,25.6
2018-06-20T11:19:09.511Z,25.6
2018-06-20T11:20:10.411Z,25.6
2018-06-20T11:21:09.172Z,25.6
2018-06-20T11:22:07.845Z,25.6
2018-06-20T11:23:10.562Z,25.6
2018-06-20T11:24:19.900Z,25.6
2018-06-20T11:25:18.021Z,25.6
2018-06-20T11:26:16.631Z,25.6
2018-06-20T11:27:22.491Z,25.6
2018-06-20T11:27:31.625Z,25.6
2018-06-20T11:28:32.150Z,25.6
2018-06-20T11:29:29.500Z,25.6
2018-06-20T11:30:29.200Z,25.6
2018-06-20T11:31:27.020Z,25.6
2018-06-20T11:32:25.496Z,25.6
2018-06-20T11:33:27.147Z,25.6
2018-06-20T11:34:24.401Z,25.6
2018-06-20T11:35:22.578Z,25.6
2018-06-20T11:36:21.231Z,25.6
2018-06-20T11:37:25.772Z,25.6
2018-06-20T11:38:27.564Z,25.6
2018-06-20T11:39:25.363Z,25.6
2018-06-20T11:40:39.940Z,25.6
2018-06-20T11:41:40.370Z,25.6
2018-06-20T11:42:50.156Z,25.7
2018-06-20T11:43:47.335Z,25.7
2018-06-20T11:44:49.469Z,25.7
2018-06-20T11:45:47.746Z,25.7
2018-06-20T11:46:46.366Z,25.7
2018-06-20T11:47:50.212Z,25.7
2018-06-20T11:48:48.894Z,25.7
2018-06-20T11:49:46.149Z,25.7
2018-06-20T11:50:43.717Z,25.7
2018-06-20T11:51:41.032Z,25.7
2018-06-20T11:51:56.454Z,25.7
2018-06-20T11:52:59.863Z,25.7
2018-06-20T11:53:57.254Z,25.7
2018-06-20T11:55:01.059Z,25.7
2018-06-20T11:56:03.611Z,25.7
2018-06-20T11:57:04.959Z,25.7
2018-06-20T11:58:01.778Z,25.8
2018-06-20T11:59:04.801Z,25.8
2018-06-20T12:00:07.093Z,25.8
2018-06-20T12:01:03.995Z,25.8
2018-06-20T12:02:08.789Z,25.8
2018-06-20T12:03:09.102Z,25.8
2018-06-20T12:04:11.490Z,25.8
2018-06-20T12:04:20.653Z,25.8
2018-06-20T12:05:17.631Z,25.8
2018-06-20T12:06:18.304Z,25.8
2018-06-20T12:07:15.792Z,25.8
2018-06-20T12:08:15.947Z,25.8
2018-06-20T12:09:14.620Z,25.8
2018-06-20T12:10:12.388Z,25.8
2018-06-20T12:11:10.653Z,25.8
2018-06-20T12:12:09.078Z,25.8
2018-06-20T12:13:21.556Z,25.9
2018-06-20T12:14:20.553Z,25.8
2018-06-20T12:15:23.952Z,25.9
2018-06-20T12:15:33.201Z,25.8
2018-06-20T12:16:29.806Z,25.9
2018-06-20T12:17:28.786Z,25.9
2018-06-20T12:18:32.078Z,25.9
2018-06-20T12:19:36.271Z,25.9
2018-06-20T12:20:37.246Z,25.9
2018-06-20T12:21:37.715Z,25.9
2018-06-20T12:22:36.813Z,25.9
2018-06-20T12:23:36.530Z,25.9
2018-06-20T12:24:33.974Z,25.9
2018-06-20T12:25:33.335Z,25.9
2018-06-20T12:26:36.699Z,25.9
2018-06-20T12:27:41.845Z,25.9
2018-06-20T12:28:40.059Z,25.9
2018-06-20T12:29:39.068Z,25.9
2018-06-20T12:30:40.848Z,25.9
2018-06-20T12:31:42.245Z,25.9
2018-06-20T12:32:40.899Z,25.9
2018-06-20T12:33:39.120Z,25.9
2018-06-20T12:34:37.832Z,25.9
2018-06-20T12:35:41.348Z,25.9
2018-06-20T12:36:38.990Z,25.9
2018-06-20T12:37:37.449Z,26
2018-06-20T12:38:37.810Z,26
2018-06-20T12:38:45.916Z,26
2018-06-20T12:39:42.772Z,25.9
2018-06-20T12:40:44.903Z,26
2018-06-20T12:41:45.275Z,26
2018-06-20T12:42:47.259Z,25.9
2018-06-20T12:43:43.487Z,26
2018-06-20T12:44:42.506Z,25.9
2018-06-20T12:45:48.796Z,26
2018-06-20T12:46:47.206Z,25.9
2018-06-20T12:47:44.907Z,25.9
2018-06-20T12:48:42.220Z,26
2018-06-20T12:49:43.417Z,26
2018-06-20T12:50:43.187Z,26
2018-06-20T12:51:40.493Z,25.9
2018-06-20T12:52:38.579Z,26
2018-06-20T12:52:48.814Z,26
2018-06-20T12:53:44.503Z,26
2018-06-20T12:54:43.908Z,26
2018-06-20T12:55:41.159Z,26
2018-06-20T12:56:45.590Z,26
2018-06-20T12:57:43.837Z,26
2018-06-20T12:58:43.307Z,26
2018-06-20T12:59:40.659Z,26
2018-06-20T13:00:41.505Z,26
2018-06-20T13:01:45.507Z,26
2018-06-20T13:02:39.822Z,26
2018-06-20T13:03:44.253Z,26
2018-06-20T13:04:47.330Z,26
2018-06-20T13:05:45.500Z,26
2018-06-20T13:06:44.405Z,26
2018-06-20T13:07:55.812Z,26
2018-06-20T13:08:55.429Z,26
2018-06-20T13:09:55.420Z,26
2018-06-20T13:10:56.984Z,26
2018-06-20T13:11:57.383Z,26
2018-06-20T13:13:08.995Z,26
2018-06-20T13:14:14.914Z,26
2018-06-20T13:15:16.112Z,26
2018-06-20T13:16:15.635Z,26
2018-06-20T13:17:13.028Z,26
2018-06-20T13:18:13.188Z,26
2018-06-20T13:19:11.658Z,26
2018-06-20T13:20:15.305Z,26
2018-06-20T13:21:14.249Z,26
2018-06-20T13:22:18.581Z,26
2018-06-20T13:23:17.818Z,26
2018-06-20T13:24:16.907Z,26
2018-06-20T13:25:14.170Z,26
2018-06-20T13:26:11.455Z,26
2018-06-20T13:27:11.053Z,26
2018-06-20T13:28:08.218Z,26
2018-06-20T13:29:12.656Z,26
2018-06-20T13:30:10.477Z,26
2018-06-20T13:31:09.815Z,26
2018-06-20T13:31:17.972Z,26
2018-06-20T13:32:16.573Z,26
2018-06-20T13:33:16.587Z,26
2018-06-20T13:34:14.304Z,26
2018-06-20T13:35:14.269Z,26
2018-06-20T13:36:12.482Z,26
2018-06-20T13:37:16.483Z,26
2018-06-20T13:38:16.790Z,26
2018-06-20T13:39:14.912Z,26
2018-06-20T13:40:12.719Z,26
2018-06-20T13:41:10.405Z,26
2018-06-20T13:42:26.978Z,26
2018-06-20T13:43:25.182Z,26
2018-06-20T13:43:33.380Z,26
2018-06-20T13:44:30.340Z,26
2018-06-20T13:45:32.024Z,26
2018-06-20T13:46:29.543Z,26
2018-06-20T13:47:27.616Z,26
2018-06-20T13:48:27.012Z,26
2018-06-20T13:49:33.326Z,26
2018-06-20T13:50:43.091Z,26
2018-06-20T13:51:41.241Z,26
2018-06-20T13:52:38.885Z,26
2018-06-20T13:53:40.255Z,26
2018-06-20T13:54:41.868Z,26
2018-06-20T13:55:41.443Z,26
2018-06-20T13:56:45.293Z,26
2018-06-20T13:57:45.394Z,26
2018-06-20T13:58:44.616Z,26
2018-06-20T13:59:46.264Z,26.1
2018-06-20T14:00:44.351Z,26
2018-06-20T14:01:50.215Z,26.1
2018-06-20T14:02:47.801Z,26.1
2018-06-20T14:03:46.813Z,26.1
2018-06-20T14:04:52.575Z,26.1
2018-06-20T14:05:55.157Z,26.1
2018-06-20T14:06:55.530Z,26.1
2018-06-20T14:07:53.018Z,26
2018-06-20T14:08:02.139Z,26.1
2018-06-20T14:08:58.681Z,26
2018-06-20T14:10:04.118Z,26
2018-06-20T14:10:55.842Z,26.1
2018-06-20T14:11:53.993Z,26.1
2018-06-20T14:12:56.294Z,26.1
2018-06-20T14:14:01.177Z,26
2018-06-20T14:15:06.692Z,26.1
2018-06-20T14:16:04.069Z,26.1
2018-06-20T14:17:19.621Z,26.1
2018-06-20T14:18:24.212Z,26.1
2018-06-20T14:19:21.954Z,26.1
2018-06-20T14:20:24.547Z,26.1
2018-06-20T14:21:28.353Z,26
2018-06-20T14:22:33.058Z,26.1
2018-06-20T14:23:31.756Z,26.1
2018-06-20T14:24:33.859Z,26
2018-06-20T14:25:35.381Z,26.1
2018-06-20T14:26:34.865Z,26.1
2018-06-20T14:27:33.398Z,26.1
2018-06-20T14:28:31.019Z,26.1
2018-06-20T14:29:30.544Z,26.1
2018-06-20T14:30:36.141Z,26
2018-06-20T14:31:33.511Z,26.1
2018-06-20T14:32:35.407Z,26.1
2018-06-20T14:33:35.223Z,26.1
2018-06-20T14:34:33.056Z,26.1
2018-06-20T14:35:33.185Z,26.1
2018-06-20T14:36:32.374Z,26.1
2018-06-20T14:37:32.088Z,26.1
2018-06-20T14:37:40.285Z,26.1
2018-06-20T14:38:44.285Z,26.1
2018-06-20T14:39:43.141Z,26.1
2018-06-20T14:40:40.614Z,26.1
2018-06-20T14:41:43.170Z,26.1
2018-06-20T14:42:44.417Z,26.1
2018-06-20T14:43:50.964Z,26.1
2018-06-20T14:44:48.854Z,26.1
2018-06-20T14:45:46.999Z,26.1
2018-06-20T14:46:46.600Z,26.1
2018-06-20T14:47:46.528Z,26.1
2018-06-20T14:48:45.479Z,26.1
2018-06-20T14:49:42.985Z,26.1
2018-06-20T14:50:50.071Z,26.1
2018-06-20T14:52:03.120Z,26.1
2018-06-20T14:53:01.236Z,26.1
2018-06-20T14:53:59.191Z,26.1
2018-06-20T14:54:58.958Z,26.1
2018-06-20T14:56:03.679Z,26.1
2018-06-20T14:57:08.150Z,26.1
2018-06-20T14:58:06.316Z,26.1
2018-06-20T14:59:05.199Z,26.1
2018-06-20T14:59:13.371Z,26.1